createdAt,value
2023-03-26T00:02:45.341Z,61.06
2023-03-26T00:07:48.719Z,62.11
2023-03-26T00:12:51.295Z,62.65
2023-03-26T00:17:54.339Z,62.60
2023-03-26T00:22:56.667Z,63.19
2023-03-26T00:27:58.975Z,62.99
2023-03-26T00:33:02.094Z,63.17
2023-03-26T00:38:04.559Z,63.19
2023-03-26T00:43:18.587Z,63.38
2023-03-26T00:48:28.963Z,63.88
2023-03-26T00:53:41.312Z,63.72
2023-03-26T00:58:43.929Z,63.87
2023-03-26T01:04:00.835Z,64.87
2023-03-26T01:09:19.052Z,66.00
2023-03-26T01:14:25.112Z,67.02
2023-03-26T01:19:47.630Z,68.06
2023-03-26T01:24:54.177Z,67.68
2023-03-26T01:30:13.712Z,69.00
2023-03-26T01:35:30.605Z,70.10
2023-03-26T01:40:42.881Z,70.45
2023-03-26T01:45:47.759Z,70.45
2023-03-26T01:50:53.670Z,71.07
2023-03-26T01:56:18.783Z,71.73
2023-03-26T02:01:36.891Z,72.12
2023-03-26T02:07:02.121Z,72.29
2023-03-26T02:12:06.457Z,72.91
2023-03-26T02:17:10.783Z,73.41
2023-03-26T02:22:15.772Z,73.19
2023-03-26T02:27:18.570Z,73.29
2023-03-26T02:32:20.736Z,74.09
2023-03-26T02:37:22.845Z,74.46
2023-03-26T02:42:24.947Z,75.09
2023-03-26T02:47:27.089Z,75.00
2023-03-26T02:52:29.764Z,75.19
2023-03-26T02:57:31.909Z,75.58
2023-03-26T03:02:34.081Z,73.85
2023-03-26T03:07:38.654Z,75.15
2023-03-26T03:12:41.717Z,76.00
2023-03-26T03:17:44.188Z,76.33
2023-03-26T03:22:46.427Z,76.60
2023-03-26T03:27:48.616Z,76.88
2023-03-26T03:32:51.162Z,77.00
2023-03-26T03:37:53.875Z,76.73
2023-03-26T03:42:56.120Z,77.11
2023-03-26T03:47:58.668Z,76.40
2023-03-26T03:53:01.164Z,75.74
2023-03-26T03:58:03.810Z,75.30
2023-03-26T04:03:06.659Z,76.03
2023-03-26T04:08:08.921Z,73.84
2023-03-26T04:13:12.662Z,73.95
2023-03-26T04:18:14.853Z,75.49
2023-03-26T04:23:18.939Z,76.09
2023-03-26T04:28:54.938Z,76.29
2023-03-26T04:34:05.897Z,76.47
2023-03-26T04:39:11.710Z,76.73
2023-03-26T04:44:17.170Z,77.08
2023-03-26T04:49:19.938Z,77.55
2023-03-26T04:54:24.443Z,77.37
2023-03-26T04:59:30.549Z,77.18
2023-03-26T05:04:36.925Z,76.07
2023-03-26T05:09:39.135Z,74.84
2023-03-26T05:14:41.340Z,72.07
2023-03-26T05:19:43.507Z,70.13
2023-03-26T05:24:46.173Z,68.56
2023-03-26T05:29:48.289Z,66.91
2023-03-26T05:34:51.076Z,65.40
2023-03-26T05:39:56.044Z,64.78
2023-03-26T05:44:58.241Z,64.33
2023-03-26T05:50:01.036Z,65.29
2023-03-26T05:55:03.613Z,65.78
2023-03-26T06:00:11.685Z,64.26
2023-03-26T06:05:13.994Z,63.25
2023-03-26T06:10:18.437Z,62.23
2023-03-26T06:15:21.464Z,61.79
2023-03-26T06:20:23.720Z,61.42
2023-03-26T06:25:26.069Z,61.02
2023-03-26T06:30:28.224Z,58.52
2023-03-26T06:35:31.535Z,58.04
2023-03-26T06:40:34.000Z,57.14
2023-03-26T06:45:37.632Z,56.31
2023-03-26T06:50:39.742Z,56.13
2023-03-26T06:55:41.989Z,55.61
2023-03-26T07:00:44.223Z,54.31
2023-03-26T07:05:47.130Z,55.44
2023-03-26T07:10:49.244Z,56.13
2023-03-26T07:15:51.474Z,56.71
2023-03-26T07:20:55.745Z,56.85
2023-03-26T07:25:58.702Z,55.03
2023-03-26T07:31:16.409Z,52.98
2023-03-26T07:36:28.398Z,51.81
2023-03-26T07:41:55.976Z,50.66
2023-03-26T07:47:01.893Z,47.38
2023-03-26T07:52:04.209Z,44.57
2023-03-26T07:57:16.103Z,43.17
2023-03-26T08:02:48.265Z,41.31
2023-03-26T08:08:02.894Z,39.82
2023-03-26T08:13:20.499Z,39.83
2023-03-26T08:18:27.552Z,40.05
2023-03-26T08:23:56.613Z,40.12
2023-03-26T08:29:10.521Z,41.25
2023-03-26T08:34:13.847Z,42.51
2023-03-26T08:39:16.028Z,42.65
2023-03-26T08:44:27.274Z,42.79
2023-03-26T08:49:46.496Z,41.24
2023-03-26T08:55:13.675Z,42.23
2023-03-26T09:00:54.415Z,41.23
2023-03-26T09:06:34.415Z,41.78
2023-03-26T09:11:59.398Z,40.59
2023-03-26T09:17:17.544Z,35.53
2023-03-26T09:22:53.501Z,28.54
2023-03-26T09:28:11.529Z,27.44
2023-03-26T09:33:53.820Z,28.38
2023-03-26T09:39:25.198Z,30.85
2023-03-26T09:44:47.228Z,32.91
2023-03-26T09:50:29.853Z,34.82
2023-03-26T09:55:56.760Z,29.53
2023-03-26T10:01:34.224Z,26.31
2023-03-26T10:06:56.852Z,20.64
2023-03-26T10:12:23.506Z,22.25
2023-03-26T10:17:36.955Z,19.25
2023-03-26T10:23:00.540Z,23.08
2023-03-26T10:28:31.082Z,27.52
2023-03-26T10:34:01.349Z,31.01
2023-03-26T10:39:36.309Z,34.57
2023-03-26T10:45:00.644Z,37.56
2023-03-26T10:50:16.988Z,40.13
2023-03-26T10:55:29.620Z,37.40
2023-03-26T11:00:37.785Z,30.20
2023-03-26T11:05:45.847Z,35.30
2023-03-26T11:10:50.930Z,33.43
2023-03-26T11:16:02.501Z,21.26
2023-03-26T11:21:27.663Z,23.32
2023-03-26T11:26:55.601Z,30.53
2023-03-26T11:32:03.398Z,22.26
2023-03-26T11:37:15.251Z,18.26
2023-03-26T11:42:22.861Z,30.02
2023-03-26T11:47:44.082Z,21.24
2023-03-26T11:52:47.141Z,17.91
2023-03-26T11:57:54.882Z,22.39
2023-03-26T12:02:59.335Z,18.54
2023-03-26T12:08:17.887Z,15.36
2023-03-26T12:13:26.584Z,15.68
2023-03-26T12:18:28.802Z,19.72
2023-03-26T12:23:58.816Z,23.01
2023-03-26T12:29:11.619Z,21.20
2023-03-26T12:34:16.852Z,28.10
2023-03-26T12:40:07.431Z,21.96
2023-03-26T12:44:59.588Z,18.33
2023-03-26T12:50:03.761Z,18.04
2023-03-26T12:55:24.817Z,15.85
2023-03-26T13:00:46.510Z,16.59
2023-03-26T13:06:30.439Z,22.35
2023-03-26T13:11:51.425Z,21.79
2023-03-26T13:17:08.607Z,23.08
2023-03-26T13:22:26.537Z,17.43
2023-03-26T13:27:40.532Z,15.13
2023-03-26T13:32:54.172Z,16.75
2023-03-26T13:38:04.918Z,25.03
2023-03-26T13:43:09.957Z,18.53
2023-03-26T13:48:22.174Z,24.18
2023-03-26T13:53:36.953Z,19.37
2023-03-26T13:58:52.600Z,17.92
2023-03-26T14:04:19.868Z,18.78
2023-03-26T14:09:54.694Z,18.07
2023-03-26T14:15:13.161Z,17.98
2023-03-26T14:20:33.389Z,16.69
2023-03-26T14:26:28.266Z,17.10
2023-03-26T14:31:50.331Z,22.13
2023-03-26T14:37:14.677Z,19.28
2023-03-26T14:42:34.201Z,21.06
2023-03-26T14:47:56.112Z,21.20
2023-03-26T14:53:04.618Z,21.24
2023-03-26T14:58:25.199Z,18.96
2023-03-26T15:03:59.247Z,21.27
2023-03-26T15:09:23.419Z,18.89
2023-03-26T15:14:28.637Z,18.92
2023-03-26T15:19:50.590Z,20.11
2023-03-26T15:25:26.802Z,19.37
2023-03-26T15:30:30.223Z,19.97
2023-03-26T15:35:41.682Z,22.61
2023-03-26T15:41:01.904Z,23.84
2023-03-26T15:46:51.158Z,24.58
2023-03-26T15:52:06.457Z,26.24
2023-03-26T15:57:19.992Z,26.47
2023-03-26T16:02:54.739Z,27.88
2023-03-26T16:08:21.502Z,29.71
2023-03-26T16:13:37.803Z,31.01
2023-03-26T16:18:42.272Z,31.52
2023-03-26T16:23:47.852Z,31.93
2023-03-26T16:28:53.512Z,32.95
2023-03-26T16:34:04.826Z,33.75
2023-03-26T16:39:08.424Z,34.44
2023-03-26T16:44:33.103Z,34.52
2023-03-26T16:49:46.743Z,35.06
2023-03-26T16:55:47.008Z,34.82
2023-03-26T17:01:04.387Z,35.11
2023-03-26T17:06:31.639Z,35.60
2023-03-26T17:11:36.316Z,36.12
2023-03-26T17:17:12.353Z,36.47
2023-03-26T17:22:39.276Z,36.88
2023-03-26T17:27:51.795Z,37.07
2023-03-26T17:33:06.155Z,37.58
2023-03-26T17:38:28.192Z,37.67
2023-03-26T17:43:38.028Z,37.75
2023-03-26T17:48:46.980Z,37.79
2023-03-26T17:53:49.958Z,37.78
2023-03-26T17:58:58.750Z,38.71
2023-03-26T18:04:21.375Z,38.44
2023-03-26T18:09:53.950Z,38.35
2023-03-26T18:15:19.062Z,38.48
2023-03-26T18:20:29.230Z,38.74
2023-03-26T18:25:34.091Z,38.56
2023-03-26T18:30:48.864Z,39.19
2023-03-26T18:35:55.516Z,38.41
2023-03-26T18:40:58.956Z,38.72
2023-03-26T18:46:01.581Z,38.76
2023-03-26T18:51:06.143Z,38.97
2023-03-26T18:56:30.112Z,39.40
2023-03-26T19:01:36.651Z,39.48
2023-03-26T19:06:42.325Z,39.16
2023-03-26T19:11:45.478Z,39.59
2023-03-26T19:16:56.625Z,39.90
2023-03-26T19:21:59.820Z,39.93
2023-03-26T19:27:02.859Z,40.06
2023-03-26T19:32:16.599Z,40.04
2023-03-26T19:37:29.907Z,40.51
2023-03-26T19:42:42.838Z,41.17
2023-03-26T19:47:57.343Z,41.65
2023-03-26T19:53:28.468Z,44.08
2023-03-26T19:58:30.842Z,43.86
2023-03-26T20:03:42.482Z,44.30
2023-03-26T20:08:45.370Z,44.54
2023-03-26T20:13:48.890Z,44.97
2023-03-26T20:18:51.171Z,44.74
2023-03-26T20:23:53.715Z,44.50
2023-03-26T20:28:56.209Z,45.20
2023-03-26T20:33:59.507Z,44.95
2023-03-26T20:39:06.190Z,44.76
2023-03-26T20:44:13.873Z,43.98
2023-03-26T20:49:16.460Z,44.26
2023-03-26T20:54:23.236Z,43.61
2023-03-26T20:59:27.891Z,43.61
2023-03-26T21:04:30.174Z,43.80
2023-03-26T21:09:35.693Z,44.21
2023-03-26T21:14:44.054Z,44.22
2023-03-26T21:19:47.223Z,44.45
2023-03-26T21:25:12.345Z,44.77
2023-03-26T21:30:16.616Z,45.20
2023-03-26T21:35:20.033Z,46.17
2023-03-26T21:40:22.399Z,48.85
2023-03-26T21:45:25.104Z,56.56
2023-03-26T21:50:27.903Z,62.67
2023-03-26T21:55:36.455Z,64.76
2023-03-26T22:01:16.735Z,65.67
2023-03-26T22:06:34.512Z,64.92
2023-03-26T22:11:36.754Z,64.41
2023-03-26T22:16:39.496Z,63.69
2023-03-26T22:21:41.641Z,62.83
2023-03-26T22:26:44.025Z,63.30
2023-03-26T22:31:46.566Z,64.10
2023-03-26T22:36:48.727Z,65.45
2023-03-26T22:41:50.933Z,67.75
2023-03-26T22:46:54.474Z,71.33
2023-03-26T22:51:57.167Z,74.30
2023-03-26T22:56:59.874Z,79.07
2023-03-26T23:02:02.104Z,83.62
2023-03-26T23:07:05.503Z,85.51
2023-03-26T23:12:07.728Z,82.18
2023-03-26T23:17:14.738Z,82.86
2023-03-26T23:22:16.994Z,82.26
2023-03-26T23:27:22.691Z,82.17
2023-03-26T23:32:28.189Z,83.42
2023-03-26T23:37:34.895Z,81.13
2023-03-26T23:42:37.908Z,81.46
2023-03-26T23:47:42.596Z,82.96
2023-03-26T23:52:45.819Z,83.93
2023-03-26T23:57:48.660Z,84.84
